createdAt,value
2019-04-10T00:00:45.846Z,76.73
2019-04-10T00:01:44.717Z,76.50
2019-04-10T00:02:44.606Z,76.97
2019-04-10T00:03:44.518Z,76.68
2019-04-10T00:04:45.295Z,76.78
2019-04-10T00:05:44.556Z,76.40
2019-04-10T00:06:44.207Z,76.78
2019-04-10T00:07:44.109Z,76.40
2019-04-10T00:08:44.227Z,76.50
2019-04-10T00:09:43.910Z,76.31
2019-04-10T00:10:43.904Z,76.12
2019-04-10T00:11:43.812Z,75.36
2019-04-10T00:12:43.610Z,75.07
2019-04-10T00:13:43.513Z,74.60
2019-04-10T00:14:43.416Z,74.32
2019-04-10T00:15:43.463Z,73.84
2019-04-10T00:16:43.212Z,73.94
2019-04-10T00:17:43.244Z,74.03
2019-04-10T00:18:43.013Z,73.46
2019-04-10T00:19:43.644Z,73.37
2019-04-10T00:20:42.831Z,73.65
2019-04-10T00:21:42.715Z,73.46
2019-04-10T00:22:42.616Z,73.46
2019-04-10T00:23:43.589Z,73.65
2019-04-10T00:24:42.448Z,73.46
2019-04-10T00:25:43.396Z,73.56
2019-04-10T00:26:42.214Z,73.75
2019-04-10T00:27:43.030Z,73.56
2019-04-10T00:28:42.018Z,73.65
2019-04-10T00:29:42.509Z,73.65
2019-04-10T00:30:42.760Z,73.65
2019-04-10T00:31:42.278Z,73.37
2019-04-10T00:32:41.616Z,73.27
2019-04-10T00:33:41.516Z,73.56
2019-04-10T00:34:42.057Z,73.65
2019-04-10T00:35:41.519Z,73.37
2019-04-10T00:36:41.546Z,73.46
2019-04-10T00:37:41.121Z,73.84
2019-04-10T00:38:41.876Z,73.65
2019-04-10T00:39:40.919Z,73.75
2019-04-10T00:40:41.589Z,73.46
2019-04-10T00:41:40.758Z,74.03
2019-04-10T00:42:41.148Z,73.84
2019-04-10T00:43:41.445Z,73.71
2019-04-10T00:44:40.423Z,73.90
2019-04-10T00:45:40.342Z,73.52
2019-04-10T00:46:40.220Z,73.80
2019-04-10T00:47:40.119Z,73.14
2019-04-10T00:48:40.022Z,73.24
2019-04-10T00:49:40.035Z,73.80
2019-04-10T00:50:39.835Z,72.57
2019-04-10T00:51:39.724Z,72.00
2019-04-10T00:52:40.642Z,72.00
2019-04-10T00:53:39.521Z,72.00
2019-04-10T00:54:39.424Z,71.95
2019-04-10T00:55:39.782Z,72.00
2019-04-10T00:56:39.236Z,71.72
2019-04-10T00:57:39.356Z,72.00
2019-04-10T00:58:39.550Z,71.81
2019-04-10T00:59:39.831Z,72.29
2019-04-10T01:00:39.220Z,72.10
2019-04-10T01:01:38.757Z,72.00
2019-04-10T01:02:38.772Z,71.91
2019-04-10T01:03:38.520Z,71.25
2019-04-10T01:04:38.422Z,72.48
2019-04-10T01:05:38.322Z,72.00
2019-04-10T01:06:38.237Z,72.00
2019-04-10T01:07:41.166Z,72.10
2019-04-10T01:08:38.022Z,72.19
2019-04-10T01:09:37.921Z,71.62
2019-04-10T01:10:38.764Z,71.81
2019-04-10T01:11:37.736Z,71.06
2019-04-10T01:12:38.373Z,71.15
2019-04-10T01:13:37.516Z,70.58
2019-04-10T01:14:38.043Z,70.20
2019-04-10T01:15:38.502Z,70.20
2019-04-10T01:16:37.714Z,69.35
2019-04-10T01:17:38.139Z,68.50
2019-04-10T01:18:37.412Z,68.40
2019-04-10T01:19:36.917Z,67.55
2019-04-10T01:20:37.767Z,66.80
2019-04-10T01:21:36.840Z,66.13
2019-04-10T01:22:36.617Z,65.37
2019-04-10T01:23:37.895Z,64.61
2019-04-10T01:24:37.552Z,64.23
2019-04-10T01:25:36.789Z,64.23
2019-04-10T01:26:37.089Z,63.95
2019-04-10T01:27:36.194Z,63.76
2019-04-10T01:28:36.675Z,63.48
2019-04-10T01:29:35.919Z,63.76
2019-04-10T01:30:35.815Z,63.76
2019-04-10T01:31:35.730Z,63.67
2019-04-10T01:32:36.334Z,63.85
2019-04-10T01:33:35.513Z,64.04
2019-04-10T01:34:35.744Z,64.23
2019-04-10T01:35:35.335Z,64.33
2019-04-10T01:36:35.376Z,63.95
2019-04-10T01:37:47.693Z,64.04
2019-04-10T01:38:35.594Z,64.04
2019-04-10T01:39:34.914Z,64.04
2019-04-10T01:40:35.163Z,64.33
2019-04-10T01:41:34.829Z,64.23
2019-04-10T01:42:34.656Z,64.23
2019-04-10T01:43:35.108Z,63.67
2019-04-10T01:44:34.411Z,63.85
2019-04-10T01:45:34.310Z,63.95
2019-04-10T01:46:35.823Z,63.01
2019-04-10T01:47:35.003Z,63.10
2019-04-10T01:48:34.535Z,62.53
2019-04-10T01:49:33.911Z,61.49
2019-04-10T01:50:34.742Z,60.64
2019-04-10T01:51:33.727Z,59.78
2019-04-10T01:52:33.624Z,58.17
2019-04-10T01:53:33.593Z,58.55
2019-04-10T01:54:33.415Z,58.26
2019-04-10T01:55:34.270Z,58.07
2019-04-10T01:56:35.117Z,57.79
2019-04-10T01:57:33.110Z,57.98
2019-04-10T01:58:33.009Z,57.70
2019-04-10T01:59:34.014Z,57.89
2019-04-10T02:00:32.812Z,57.70
2019-04-10T02:01:32.723Z,57.32
2019-04-10T02:02:33.549Z,57.60
2019-04-10T02:03:32.511Z,57.32
2019-04-10T02:04:33.142Z,56.85
2019-04-10T02:05:32.500Z,56.66
2019-04-10T02:06:32.224Z,55.99
2019-04-10T02:07:32.109Z,55.33
2019-04-10T02:08:32.004Z,55.24
2019-04-10T02:09:32.006Z,54.47
2019-04-10T02:10:32.105Z,53.72
2019-04-10T02:11:32.277Z,53.15
2019-04-10T02:12:31.606Z,52.58
2019-04-10T02:13:31.675Z,52.11
2019-04-10T02:14:32.118Z,51.92
2019-04-10T02:15:32.216Z,51.07
2019-04-10T02:16:31.326Z,51.26
2019-04-10T02:17:31.103Z,50.88
2019-04-10T02:18:31.005Z,49.74
2019-04-10T02:19:30.909Z,49.36
2019-04-10T02:20:31.325Z,48.98
2019-04-10T02:21:31.745Z,49.27
2019-04-10T02:22:30.853Z,49.27
2019-04-10T02:23:30.607Z,49.36
2019-04-10T02:24:31.326Z,49.36
2019-04-10T02:25:30.629Z,49.08
2019-04-10T02:26:30.217Z,49.27
2019-04-10T02:27:30.188Z,49.08
2019-04-10T02:28:30.961Z,49.27
2019-04-10T02:29:29.899Z,48.98
2019-04-10T02:30:30.352Z,49.65
2019-04-10T02:31:30.626Z,49.36
2019-04-10T02:32:29.601Z,49.27
2019-04-10T02:33:29.498Z,49.65
2019-04-10T02:34:30.692Z,49.43
2019-04-10T02:35:29.770Z,50.28
2019-04-10T02:36:31.364Z,50.76
2019-04-10T02:37:29.198Z,50.21
2019-04-10T02:38:47.835Z,50.38
2019-04-10T02:39:36.156Z,50.19
2019-04-10T02:40:28.964Z,50.00
2019-04-10T02:41:29.887Z,49.62
2019-04-10T02:42:30.089Z,49.62
2019-04-10T02:43:29.253Z,49.43
2019-04-10T02:44:30.462Z,49.62
2019-04-10T02:45:28.299Z,48.86
2019-04-10T02:46:29.280Z,49.05
2019-04-10T02:47:28.381Z,48.96
2019-04-10T02:48:29.549Z,49.05
2019-04-10T02:49:28.071Z,49.05
2019-04-10T02:50:29.280Z,49.05
2019-04-10T02:51:27.700Z,49.05
2019-04-10T02:52:28.422Z,48.58
2019-04-10T02:53:27.686Z,48.58
2019-04-10T02:54:28.942Z,48.77
2019-04-10T02:55:27.382Z,49.15
2019-04-10T02:56:28.488Z,49.05
2019-04-10T02:57:27.610Z,49.05
2019-04-10T02:58:26.993Z,49.24
2019-04-10T02:59:27.132Z,48.96
2019-04-10T03:00:28.173Z,49.05
2019-04-10T03:01:27.282Z,49.05
2019-04-10T03:02:26.847Z,48.96
2019-04-10T03:03:27.621Z,49.05
2019-04-10T03:04:26.717Z,49.15
2019-04-10T03:05:27.357Z,48.86
2019-04-10T03:06:27.253Z,49.43
2019-04-10T03:07:26.099Z,49.41
2019-04-10T03:08:41.009Z,49.79
2019-04-10T03:09:41.856Z,49.31
2019-04-10T03:10:35.968Z,49.03
2019-04-10T03:11:26.472Z,49.03
2019-04-10T03:12:25.726Z,48.93
2019-04-10T03:13:26.850Z,48.36
2019-04-10T03:14:26.430Z,48.36
2019-04-10T03:15:25.364Z,48.18
2019-04-10T03:16:25.174Z,48.46
2019-04-10T03:17:25.989Z,48.27
2019-04-10T03:18:25.150Z,48.36
2019-04-10T03:19:25.495Z,48.55
2019-04-10T03:20:24.771Z,48.18
2019-04-10T03:21:24.671Z,47.89
2019-04-10T03:22:24.947Z,47.32
2019-04-10T03:23:25.203Z,47.70
2019-04-10T03:24:25.270Z,47.04
2019-04-10T03:25:24.656Z,46.19
2019-04-10T03:26:24.167Z,45.72
2019-04-10T03:27:24.083Z,45.05
2019-04-10T03:28:24.943Z,44.10
2019-04-10T03:29:24.080Z,43.63
2019-04-10T03:30:23.906Z,42.97
2019-04-10T03:31:25.277Z,42.11
2019-04-10T03:32:27.880Z,41.08
2019-04-10T03:33:28.907Z,40.22
2019-04-10T03:34:25.609Z,39.09
2019-04-10T03:35:23.257Z,39.18
2019-04-10T03:36:23.271Z,39.37
2019-04-10T03:37:23.069Z,39.47
2019-04-10T03:38:23.726Z,39.47
2019-04-10T03:39:23.698Z,38.98
2019-04-10T03:40:23.698Z,38.41
2019-04-10T03:41:22.652Z,37.67
2019-04-10T03:42:23.199Z,36.54
2019-04-10T03:43:22.561Z,35.68
2019-04-10T03:44:22.835Z,34.64
2019-04-10T03:45:22.432Z,34.26
2019-04-10T03:46:22.154Z,33.77
2019-04-10T03:47:22.936Z,33.58
2019-04-10T03:48:22.966Z,33.20
2019-04-10T03:49:22.126Z,33.30
2019-04-10T03:50:21.739Z,33.20
2019-04-10T03:51:22.753Z,32.82
2019-04-10T03:52:21.549Z,33.01
2019-04-10T03:53:22.303Z,32.82
2019-04-10T03:54:21.329Z,32.82
2019-04-10T03:55:21.230Z,32.92
2019-04-10T03:56:21.362Z,32.73
2019-04-10T03:57:21.047Z,33.11
2019-04-10T03:58:20.926Z,32.73
2019-04-10T03:59:20.826Z,32.73
2019-04-10T04:00:21.066Z,32.82
2019-04-10T04:01:20.832Z,32.73
2019-04-10T04:02:20.535Z,32.64
2019-04-10T04:03:20.518Z,32.26
2019-04-10T04:04:20.315Z,32.35
2019-04-10T04:05:20.370Z,31.98
2019-04-10T04:06:20.113Z,31.50
2019-04-10T04:07:20.997Z,31.69
2019-04-10T04:08:19.909Z,31.03
2019-04-10T04:09:20.108Z,31.79
2019-04-10T04:10:20.491Z,31.50
2019-04-10T04:11:19.731Z,31.41
2019-04-10T04:12:20.238Z,30.84
2019-04-10T04:13:19.575Z,31.03
2019-04-10T04:14:19.969Z,31.12
2019-04-10T04:15:19.885Z,31.22
2019-04-10T04:16:19.237Z,31.03
2019-04-10T04:17:19.991Z,31.03
2019-04-10T04:18:19.278Z,31.22
2019-04-10T04:19:18.792Z,31.12
2019-04-10T04:20:19.104Z,30.74
2019-04-10T04:21:19.520Z,30.74
2019-04-10T04:22:18.817Z,30.84
2019-04-10T04:23:19.319Z,30.65
2019-04-10T04:24:21.142Z,30.84
2019-04-10T04:25:18.187Z,30.74
2019-04-10T04:26:19.067Z,31.22
2019-04-10T04:27:18.918Z,30.93
2019-04-10T04:28:18.838Z,31.12
2019-04-10T04:29:18.483Z,31.31
2019-04-10T04:30:17.681Z,31.12
2019-04-10T04:31:18.082Z,31.22
2019-04-10T04:32:17.697Z,31.03
2019-04-10T04:33:17.405Z,31.03
2019-04-10T04:34:17.270Z,31.50
2019-04-10T04:35:17.581Z,31.41
2019-04-10T04:36:18.040Z,32.35
2019-04-10T04:37:16.983Z,32.64
2019-04-10T04:38:17.795Z,32.92
2019-04-10T04:39:24.030Z,33.11
2019-04-10T04:40:17.430Z,33.01
2019-04-10T04:41:17.409Z,33.20
2019-04-10T04:42:17.025Z,33.11
2019-04-10T04:43:16.700Z,33.39
2019-04-10T04:44:16.251Z,33.30
2019-04-10T04:45:17.282Z,32.92
2019-04-10T04:46:16.219Z,33.20
2019-04-10T04:47:15.948Z,33.01
2019-04-10T04:48:16.935Z,32.92
2019-04-10T04:49:15.768Z,32.82
2019-04-10T04:50:15.749Z,32.82
2019-04-10T04:51:15.539Z,33.01
2019-04-10T04:52:16.250Z,32.92
2019-04-10T04:53:16.322Z,32.92
2019-04-10T04:54:15.234Z,33.01
2019-04-10T04:55:15.132Z,32.92
2019-04-10T04:56:15.749Z,32.73
2019-04-10T04:57:15.038Z,33.01
2019-04-10T04:58:14.894Z,33.01
2019-04-10T04:59:14.725Z,33.01
2019-04-10T05:00:15.246Z,33.01
2019-04-10T05:01:14.741Z,32.92
2019-04-10T05:02:14.441Z,32.92
2019-04-10T05:03:14.336Z,33.01
2019-04-10T05:04:15.186Z,32.92
2019-04-10T05:05:14.312Z,32.82
2019-04-10T05:06:14.016Z,33.01
2019-04-10T05:07:14.832Z,32.92
2019-04-10T05:08:13.826Z,32.92
2019-04-10T05:09:25.995Z,33.39
2019-04-10T05:10:13.623Z,33.49
2019-04-10T05:11:13.884Z,34.06
2019-04-10T05:12:13.460Z,34.44
2019-04-10T05:13:13.674Z,34.63
2019-04-10T05:14:13.250Z,35.00
2019-04-10T05:15:13.099Z,35.00
2019-04-10T05:16:13.000Z,35.85
2019-04-10T05:17:15.066Z,35.95
2019-04-10T05:18:12.810Z,36.42
2019-04-10T05:19:12.690Z,36.80
2019-04-10T05:20:12.589Z,36.99
2019-04-10T05:21:12.744Z,37.38
2019-04-10T05:22:12.387Z,39.47
2019-04-10T05:23:12.300Z,41.36
2019-04-10T05:24:12.184Z,41.74
2019-04-10T05:25:13.172Z,42.50
2019-04-10T05:26:11.984Z,43.07
2019-04-10T05:27:11.949Z,46.56
2019-04-10T05:28:11.801Z,49.50
2019-04-10T05:29:11.688Z,52.34
2019-04-10T05:30:11.574Z,54.93
2019-04-10T05:31:11.474Z,57.48
2019-04-10T05:32:11.479Z,59.84
2019-04-10T05:33:11.994Z,60.89
2019-04-10T05:34:11.455Z,62.59
2019-04-10T05:35:11.591Z,64.01
2019-04-10T05:36:11.213Z,64.77
2019-04-10T05:37:11.458Z,64.68
2019-04-10T05:38:10.792Z,64.68
2019-04-10T05:39:10.675Z,67.14
2019-04-10T05:40:10.567Z,69.13
2019-04-10T05:41:10.467Z,69.70
2019-04-10T05:42:10.622Z,71.21
2019-04-10T05:43:11.408Z,71.50
2019-04-10T05:44:10.163Z,71.12
2019-04-10T05:45:10.071Z,70.83
2019-04-10T05:46:09.963Z,72.06
2019-04-10T05:47:10.347Z,72.82
2019-04-10T05:48:10.978Z,73.11
2019-04-10T05:49:10.748Z,73.77
2019-04-10T05:50:10.769Z,73.49
2019-04-10T05:51:09.558Z,73.30
2019-04-10T05:52:10.196Z,73.68
2019-04-10T05:53:09.824Z,73.30
2019-04-10T05:54:09.164Z,73.39
2019-04-10T05:55:09.063Z,73.11
2019-04-10T05:56:09.860Z,73.39
2019-04-10T05:57:08.860Z,73.39
2019-04-10T05:58:09.228Z,73.49
2019-04-10T05:59:10.804Z,73.49
2019-04-10T06:00:08.566Z,73.77
2019-04-10T06:01:09.390Z,73.96
2019-04-10T06:02:09.338Z,73.77
2019-04-10T06:03:08.284Z,74.05
2019-04-10T06:04:09.207Z,74.24
2019-04-10T06:05:08.068Z,74.15
2019-04-10T06:06:08.345Z,74.95
2019-04-10T06:07:08.577Z,75.42
2019-04-10T06:08:07.894Z,75.13
2019-04-10T06:09:08.657Z,74.90
2019-04-10T06:10:10.270Z,75.47
2019-04-10T06:11:08.600Z,75.76
2019-04-10T06:12:07.363Z,76.17
2019-04-10T06:13:07.287Z,76.36
2019-04-10T06:14:08.152Z,76.55
2019-04-10T06:15:07.066Z,76.46
2019-04-10T06:16:07.713Z,76.55
2019-04-10T06:17:07.949Z,77.03
2019-04-10T06:18:07.102Z,79.06
2019-04-10T06:19:07.326Z,79.25
2019-04-10T06:20:07.120Z,80.10
2019-04-10T06:21:07.095Z,82.47
2019-04-10T06:22:09.192Z,84.41
2019-04-10T06:23:07.335Z,84.50
2019-04-10T06:24:06.200Z,84.88
2019-04-10T06:25:08.333Z,85.93
2019-04-10T06:26:06.864Z,85.83
2019-04-10T06:27:06.003Z,88.01
2019-04-10T06:28:05.773Z,87.49
2019-04-10T06:29:06.512Z,88.91
2019-04-10T06:30:05.734Z,88.62
2019-04-10T06:31:06.213Z,90.14
2019-04-10T06:32:05.412Z,90.43
2019-04-10T06:33:05.283Z,90.14
2019-04-10T06:34:05.304Z,90.62
2019-04-10T06:35:05.770Z,91.19
2019-04-10T06:36:05.026Z,91.47
2019-04-10T06:37:06.038Z,91.56
2019-04-10T06:38:04.794Z,91.09
2019-04-10T06:39:04.733Z,91.38
2019-04-10T06:40:13.039Z,92.04
2019-04-10T06:41:04.609Z,91.09
2019-04-10T06:42:04.550Z,90.95
2019-04-10T06:43:04.456Z,91.05
2019-04-10T06:44:04.222Z,91.42
2019-04-10T06:45:05.715Z,91.42
2019-04-10T06:46:04.320Z,91.52
2019-04-10T06:47:04.231Z,91.33
2019-04-10T06:48:03.927Z,90.81
2019-04-10T06:49:05.418Z,91.38
2019-04-10T06:50:04.338Z,91.19
2019-04-10T06:51:04.002Z,92.04
2019-04-10T06:52:03.429Z,90.81
2019-04-10T06:53:04.137Z,91.28
2019-04-10T06:54:08.102Z,91.33
2019-04-10T06:55:03.239Z,92.56
2019-04-10T06:56:03.048Z,92.75
2019-04-10T06:57:02.941Z,92.85
2019-04-10T06:58:02.868Z,94.08
2019-04-10T06:59:02.785Z,94.08
2019-04-10T07:00:02.651Z,94.65
2019-04-10T07:01:02.555Z,94.89
2019-04-10T07:02:13.112Z,95.55
2019-04-10T07:03:03.098Z,94.51
2019-04-10T07:04:06.985Z,95.98
2019-04-10T07:05:05.754Z,95.70
2019-04-10T07:06:09.644Z,96.17
2019-04-10T07:07:08.839Z,96.60
2019-04-10T07:08:10.983Z,96.55
2019-04-10T07:09:01.927Z,96.26
2019-04-10T07:10:02.332Z,97.07
2019-04-10T07:11:06.824Z,98.21
2019-04-10T07:12:03.025Z,97.45
2019-04-10T07:13:04.287Z,97.17
2019-04-10T07:14:01.595Z,97.88
2019-04-10T07:15:02.329Z,97.03
2019-04-10T07:16:02.061Z,97.27
2019-04-10T07:17:05.315Z,97.45
2019-04-10T07:18:01.027Z,97.27
2019-04-10T07:19:04.269Z,97.41
2019-04-10T07:20:01.852Z,97.41
2019-04-10T07:21:01.678Z,97.22
2019-04-10T07:22:01.868Z,96.65
2019-04-10T07:23:00.544Z,96.74
2019-04-10T07:24:04.999Z,97.13
2019-04-10T07:25:00.550Z,96.94
2019-04-10T07:26:00.168Z,96.65
2019-04-10T07:27:03.289Z,97.27
2019-04-10T07:28:01.171Z,97.27
2019-04-10T07:29:00.549Z,97.55
2019-04-10T07:29:59.865Z,98.03
2019-04-10T07:31:05.002Z,98.36
2019-04-10T07:32:00.461Z,98.31
2019-04-10T07:32:59.500Z,98.36
2019-04-10T07:33:59.977Z,98.83
2019-04-10T07:35:01.125Z,98.93
2019-04-10T07:35:59.295Z,99.21
2019-04-10T07:37:00.124Z,99.21
2019-04-10T07:37:59.680Z,99.50
2019-04-10T07:38:59.223Z,99.59
2019-04-10T07:40:02.619Z,99.99
2019-04-10T07:40:58.913Z,99.99
2019-04-10T07:41:58.654Z,99.50
2019-04-10T07:42:58.772Z,99.74
2019-04-10T07:43:58.755Z,98.88
2019-04-10T07:44:58.392Z,97.88
2019-04-10T07:45:58.280Z,98.55
2019-04-10T07:46:59.718Z,98.46
2019-04-10T07:47:58.159Z,97.36
2019-04-10T07:48:58.606Z,96.98
2019-04-10T07:50:00.786Z,96.79
2019-04-10T07:50:57.812Z,96.17
2019-04-10T07:51:58.656Z,95.79
2019-04-10T07:52:57.661Z,96.03
2019-04-10T07:53:57.754Z,94.41
2019-04-10T07:54:58.653Z,93.93
2019-04-10T07:56:05.359Z,95.36
2019-04-10T07:56:57.892Z,95.84
2019-04-10T07:57:57.260Z,94.32
2019-04-10T07:58:57.065Z,95.46
2019-04-10T07:59:56.983Z,94.13
2019-04-10T08:00:56.872Z,94.03
2019-04-10T08:01:57.776Z,94.03
2019-04-10T08:02:57.495Z,93.70
2019-04-10T08:03:57.580Z,95.36
2019-04-10T08:04:56.517Z,93.98
2019-04-10T08:05:56.416Z,93.98
2019-04-10T08:06:56.323Z,95.51
2019-04-10T08:07:57.419Z,94.08
2019-04-10T08:08:56.133Z,93.41
2019-04-10T08:09:56.059Z,94.93
2019-04-10T08:10:55.957Z,94.27
2019-04-10T08:11:56.732Z,94.74
2019-04-10T08:12:56.021Z,95.12
2019-04-10T08:13:56.140Z,94.27
2019-04-10T08:14:56.166Z,94.17
2019-04-10T08:15:56.347Z,94.22
2019-04-10T08:16:55.398Z,94.13
2019-04-10T08:17:56.107Z,92.32
2019-04-10T08:18:56.215Z,91.88
2019-04-10T08:19:55.200Z,91.94
2019-04-10T08:20:55.212Z,91.55
2019-04-10T08:21:54.941Z,90.98
2019-04-10T08:22:55.329Z,91.60
2019-04-10T08:23:54.912Z,91.60
2019-04-10T08:24:54.824Z,91.31
2019-04-10T08:25:54.596Z,90.88
2019-04-10T08:26:54.835Z,90.69
2019-04-10T08:27:54.385Z,89.07
2019-04-10T08:28:54.296Z,88.50
2019-04-10T08:29:54.785Z,88.31
2019-04-10T08:30:54.649Z,88.50
2019-04-10T08:31:54.022Z,88.12
2019-04-10T08:33:00.846Z,87.21
2019-04-10T08:33:54.740Z,90.17
2019-04-10T08:34:53.745Z,89.31
2019-04-10T08:35:54.717Z,88.84
2019-04-10T08:36:55.045Z,88.74
2019-04-10T08:37:53.510Z,88.40
2019-04-10T08:38:53.380Z,87.54
2019-04-10T08:39:53.290Z,86.88
2019-04-10T08:40:54.390Z,88.07
2019-04-10T08:41:53.106Z,88.64
2019-04-10T08:42:53.018Z,89.17
2019-04-10T08:43:52.926Z,89.98
2019-04-10T08:44:52.836Z,90.17
2019-04-10T08:45:53.761Z,90.03
2019-04-10T08:46:52.668Z,90.12
2019-04-10T08:47:52.923Z,90.64
2019-04-10T08:48:52.471Z,91.03
2019-04-10T08:49:52.871Z,89.40
2019-04-10T08:50:52.500Z,89.74
2019-04-10T08:51:52.215Z,89.64
2019-04-10T08:52:52.210Z,88.98
2019-04-10T08:53:54.211Z,89.31
2019-04-10T08:54:51.924Z,89.84
2019-04-10T08:55:52.614Z,88.93
2019-04-10T08:56:52.608Z,89.17
2019-04-10T08:57:52.426Z,88.50
2019-04-10T08:58:51.776Z,89.17
2019-04-10T08:59:52.049Z,87.78
2019-04-10T09:00:52.726Z,86.54
2019-04-10T09:01:51.529Z,85.72
2019-04-10T09:02:51.200Z,85.15
2019-04-10T09:03:51.111Z,83.29
2019-04-10T09:04:51.086Z,84.59
2019-04-10T09:05:51.146Z,85.11
2019-04-10T09:06:51.545Z,84.96
2019-04-10T09:07:50.751Z,84.88
2019-04-10T09:08:50.930Z,86.55
2019-04-10T09:09:50.565Z,87.35
2019-04-10T09:10:50.524Z,86.69
2019-04-10T09:11:51.383Z,87.74
2019-04-10T09:12:51.181Z,85.73
2019-04-10T09:13:50.311Z,86.35
2019-04-10T09:14:50.113Z,86.06
2019-04-10T09:15:50.047Z,84.77
2019-04-10T09:16:51.003Z,83.72
2019-04-10T09:17:49.878Z,85.44
2019-04-10T09:18:49.750Z,83.86
2019-04-10T09:19:49.864Z,82.37
2019-04-10T09:20:49.698Z,82.22
2019-04-10T09:21:49.901Z,80.69
2019-04-10T09:23:10.366Z,81.22
2019-04-10T09:23:52.822Z,81.22
2019-04-10T09:24:49.210Z,81.32
2019-04-10T09:25:49.221Z,81.55
2019-04-10T09:26:49.034Z,82.51
2019-04-10T09:27:49.697Z,83.08
2019-04-10T09:28:48.862Z,82.18
2019-04-10T09:29:48.763Z,81.60
2019-04-10T09:30:49.059Z,82.18
2019-04-10T09:31:48.593Z,81.99
2019-04-10T09:32:48.581Z,82.75
2019-04-10T09:33:49.460Z,83.42
2019-04-10T09:34:48.315Z,83.17
2019-04-10T09:35:48.867Z,81.74
2019-04-10T09:36:49.195Z,82.51
2019-04-10T09:37:48.340Z,81.84
2019-04-10T09:38:47.961Z,82.60
2019-04-10T09:39:50.609Z,81.65
2019-04-10T09:40:48.760Z,80.44
2019-04-10T09:41:47.694Z,79.83
2019-04-10T09:42:47.993Z,80.88
2019-04-10T09:43:47.743Z,81.41
2019-04-10T09:44:48.513Z,82.94
2019-04-10T09:45:48.026Z,82.28
2019-04-10T09:46:47.336Z,83.00
2019-04-10T09:47:48.075Z,83.00
2019-04-10T09:48:47.686Z,81.70
2019-04-10T09:49:47.215Z,81.74
2019-04-10T09:50:48.057Z,81.30
2019-04-10T09:51:48.059Z,79.73
2019-04-10T09:52:46.719Z,79.88
2019-04-10T09:53:46.627Z,79.73
2019-04-10T09:54:46.795Z,80.79
2019-04-10T09:55:46.934Z,79.79
2019-04-10T09:56:46.416Z,79.60
2019-04-10T09:57:46.272Z,80.74
2019-04-10T09:58:46.813Z,79.83
2019-04-10T09:59:47.136Z,80.02
2019-04-10T10:00:46.021Z,81.45
2019-04-10T10:01:46.452Z,79.68
2019-04-10T10:02:45.827Z,77.13
2019-04-10T10:03:45.740Z,76.18
2019-04-10T10:04:45.996Z,76.94
2019-04-10T10:05:46.634Z,76.56
2019-04-10T10:06:45.472Z,75.31
2019-04-10T10:07:45.383Z,76.46
2019-04-10T10:08:45.301Z,75.60
2019-04-10T10:09:45.218Z,74.36
2019-04-10T10:10:45.121Z,73.82
2019-04-10T10:11:45.045Z,73.82
2019-04-10T10:12:45.034Z,73.21
2019-04-10T10:13:45.806Z,72.92
2019-04-10T10:14:44.767Z,73.21
2019-04-10T10:15:45.242Z,73.11
2019-04-10T10:16:44.603Z,73.34
2019-04-10T10:17:44.602Z,72.58
2019-04-10T10:18:45.643Z,74.11
2019-04-10T10:19:44.321Z,73.44
2019-04-10T10:20:44.241Z,72.96
2019-04-10T10:21:44.887Z,72.96
2019-04-10T10:22:44.061Z,74.11
2019-04-10T10:23:44.673Z,72.38
2019-04-10T10:24:43.880Z,71.91
2019-04-10T10:25:43.795Z,74.01
2019-04-10T10:26:46.051Z,72.80
2019-04-10T10:27:44.676Z,73.91
2019-04-10T10:28:43.529Z,74.30
2019-04-10T10:29:44.111Z,72.48
2019-04-10T10:30:43.968Z,72.54
2019-04-10T10:31:44.378Z,72.54
2019-04-10T10:32:43.803Z,72.25
2019-04-10T10:33:43.092Z,72.25
2019-04-10T10:34:43.001Z,71.04
2019-04-10T10:35:43.194Z,71.42
2019-04-10T10:36:46.146Z,71.81
2019-04-10T10:37:42.905Z,71.17
2019-04-10T10:38:43.386Z,70.60
2019-04-10T10:39:43.072Z,70.98
2019-04-10T10:40:43.599Z,69.87
2019-04-10T10:41:42.643Z,69.77
2019-04-10T10:42:43.462Z,69.54
2019-04-10T10:43:42.618Z,68.72
2019-04-10T10:44:42.476Z,68.72
2019-04-10T10:45:42.937Z,69.01
2019-04-10T10:46:41.969Z,68.14
2019-04-10T10:47:41.863Z,67.09
2019-04-10T10:48:42.057Z,66.32
2019-04-10T10:49:42.359Z,67.85
2019-04-10T10:50:41.655Z,68.05
2019-04-10T10:51:42.545Z,67.47
2019-04-10T10:52:41.713Z,67.34
2019-04-10T10:53:41.351Z,67.34
2019-04-10T10:54:41.254Z,68.30
2019-04-10T10:55:42.058Z,68.30
2019-04-10T10:56:41.097Z,67.91
2019-04-10T10:57:41.568Z,67.28
2019-04-10T10:58:40.905Z,66.89
2019-04-10T10:59:41.790Z,67.09
2019-04-10T11:00:41.130Z,67.18
2019-04-10T11:01:40.662Z,66.58
2019-04-10T11:02:41.504Z,67.44
2019-04-10T11:03:40.563Z,67.76
2019-04-10T11:04:40.387Z,66.51
2019-04-10T11:05:40.403Z,66.89
2019-04-10T11:06:51.497Z,66.77
2019-04-10T11:07:40.533Z,68.40
2019-04-10T11:08:40.033Z,67.57
2019-04-10T11:09:40.218Z,66.03
2019-04-10T11:10:41.084Z,64.92
2019-04-10T11:11:40.932Z,65.88
2019-04-10T11:12:39.989Z,66.06
2019-04-10T11:13:39.602Z,64.43
2019-04-10T11:14:39.632Z,64.34
2019-04-10T11:15:43.671Z,64.92
2019-04-10T11:16:39.352Z,64.89
2019-04-10T11:17:40.404Z,65.65
2019-04-10T11:18:40.316Z,66.61
2019-04-10T11:19:39.453Z,66.51
2019-04-10T11:20:39.406Z,65.71
2019-04-10T11:21:39.053Z,66.22
2019-04-10T11:22:39.733Z,66.89
2019-04-10T11:23:38.872Z,66.22
2019-04-10T11:24:40.759Z,66.35
2019-04-10T11:25:40.141Z,66.74
2019-04-10T11:26:39.923Z,65.59
2019-04-10T11:27:39.311Z,65.17
2019-04-10T11:28:39.301Z,64.05
2019-04-10T11:29:39.014Z,65.84
2019-04-10T11:30:38.346Z,66.00
2019-04-10T11:31:38.544Z,65.94
2019-04-10T11:32:38.289Z,67.47
2019-04-10T11:33:39.714Z,67.28
2019-04-10T11:34:38.205Z,67.38
2019-04-10T11:35:37.686Z,66.51
2019-04-10T11:36:37.614Z,66.77
2019-04-10T11:37:44.585Z,65.75
2019-04-10T11:38:37.503Z,66.51
2019-04-10T11:39:40.424Z,65.75
2019-04-10T11:40:38.822Z,65.97
2019-04-10T11:41:37.432Z,65.68
2019-04-10T11:42:37.282Z,64.53
2019-04-10T11:43:37.663Z,63.99
2019-04-10T11:44:38.932Z,64.28
2019-04-10T11:45:42.603Z,64.63
2019-04-10T11:46:38.684Z,64.76
2019-04-10T11:47:36.760Z,65.68
2019-04-10T11:48:36.687Z,65.55
2019-04-10T11:49:40.035Z,64.82
2019-04-10T11:50:38.442Z,66.06
2019-04-10T11:51:38.736Z,65.94
2019-04-10T11:53:39.874Z,65.81
2019-04-10T11:54:40.980Z,66.13
2019-04-10T11:56:37.845Z,66.71
2019-04-10T11:57:37.326Z,66.06
2019-04-10T11:58:43.860Z,65.94
2019-04-10T11:59:37.967Z,65.91
2019-04-10T12:00:46.420Z,65.68
2019-04-10T12:01:36.823Z,64.53
2019-04-10T12:02:36.937Z,63.09
2019-04-10T12:03:37.052Z,64.25
2019-04-10T12:04:47.453Z,65.17
2019-04-10T12:05:36.673Z,66.29
2019-04-10T12:06:37.659Z,65.81
2019-04-10T12:08:01.337Z,66.03
2019-04-10T12:09:00.374Z,66.71
2019-04-10T12:11:35.160Z,65.59
2019-04-10T12:12:35.459Z,64.31
2019-04-10T12:13:34.531Z,64.12
2019-04-10T12:14:35.221Z,65.49
2019-04-10T12:15:34.442Z,65.68
2019-04-10T12:16:34.122Z,65.11
2019-04-10T12:17:34.052Z,66.16
2019-04-10T12:18:35.030Z,65.68
2019-04-10T12:19:33.861Z,65.97
2019-04-10T12:20:33.776Z,65.46
2019-04-10T12:21:33.767Z,65.97
2019-04-10T12:22:33.817Z,66.06
2019-04-10T12:23:34.651Z,66.03
2019-04-10T12:24:34.191Z,66.22
2019-04-10T12:25:34.627Z,66.71
2019-04-10T12:26:33.901Z,66.58
2019-04-10T12:27:33.526Z,67.05
2019-04-10T12:28:33.920Z,67.82
2019-04-10T12:29:33.077Z,68.65
2019-04-10T12:30:32.905Z,68.36
2019-04-10T12:31:33.241Z,68.74
2019-04-10T12:32:32.747Z,68.55
2019-04-10T12:33:33.687Z,68.36
2019-04-10T12:34:32.557Z,68.36
2019-04-10T12:35:32.470Z,66.74
2019-04-10T12:36:32.383Z,65.74
2019-04-10T12:37:32.832Z,66.25
2019-04-10T12:38:32.206Z,68.74
2019-04-10T12:39:32.255Z,69.51
2019-04-10T12:40:32.928Z,68.30
2019-04-10T12:41:33.143Z,67.41
2019-04-10T12:42:32.339Z,67.69
2019-04-10T12:43:32.665Z,67.50
2019-04-10T12:44:31.735Z,67.02
2019-04-10T12:45:32.616Z,66.45
2019-04-10T12:46:31.502Z,67.50
2019-04-10T12:47:32.208Z,68.71
2019-04-10T12:48:31.548Z,69.44
2019-04-10T12:49:31.692Z,70.17
2019-04-10T12:50:31.149Z,71.61
2019-04-10T12:51:31.978Z,71.03
2019-04-10T12:52:30.991Z,72.75
2019-04-10T12:53:31.743Z,73.99
2019-04-10T12:54:30.794Z,74.09
2019-04-10T12:55:30.730Z,74.66